createdAt,value
2019-05-14T00:00:51.990Z,32.00
2019-05-14T00:01:51.435Z,36.00
2019-05-14T00:02:51.875Z,44.00
2019-05-14T00:03:51.530Z,52.00
2019-05-14T00:04:51.273Z,60.00
2019-05-14T00:05:51.491Z,72.00
2019-05-14T00:06:51.804Z,84.00
2019-05-14T00:07:51.970Z,100.00
2019-05-14T00:08:49.411Z,112.00
2019-05-14T00:09:51.688Z,132.00
2019-05-14T00:10:51.795Z,152.00
2019-05-14T00:11:51.303Z,168.00
2019-05-14T00:12:51.299Z,188.00
2019-05-14T00:13:49.354Z,212.00
2019-05-14T00:14:51.454Z,236.00
2019-05-14T00:15:49.335Z,260.00
2019-05-14T00:16:51.157Z,284.00
2019-05-14T00:17:52.037Z,320.00
2019-05-14T00:18:51.180Z,352.00
2019-05-14T00:20:03.755Z,388.00
2019-05-14T00:21:14.095Z,448.00
2019-05-14T00:22:14.084Z,492.00
2019-05-14T00:23:14.177Z,540.00
2019-05-14T00:24:14.068Z,592.00
2019-05-14T00:25:14.054Z,652.00
2019-05-14T00:26:14.045Z,724.00
2019-05-14T00:27:14.031Z,792.00
2019-05-14T00:28:14.020Z,864.00
2019-05-14T00:29:14.110Z,948.00
2019-05-14T00:30:14.003Z,1096.00
2019-05-14T00:31:13.992Z,1328.00
2019-05-14T00:32:13.979Z,1516.00
2019-05-14T00:33:13.966Z,1652.00
2019-05-14T00:34:14.106Z,1788.00
2019-05-14T00:35:13.954Z,1908.00
2019-05-14T00:36:13.935Z,2016.00
2019-05-14T00:37:13.924Z,2092.00
2019-05-14T00:38:13.914Z,2028.00
2019-05-14T00:39:13.900Z,2040.00
2019-05-14T00:40:13.945Z,2432.00
2019-05-14T00:41:13.882Z,2892.00
2019-05-14T00:42:13.871Z,3136.00
2019-05-14T00:43:13.860Z,3332.00
2019-05-14T00:44:13.849Z,3392.00
2019-05-14T00:45:13.841Z,3524.00
2019-05-14T00:46:13.875Z,3872.00
2019-05-14T00:47:13.817Z,4128.00
2019-05-14T00:48:13.810Z,4308.00
2019-05-14T00:49:13.796Z,4448.00
2019-05-14T00:50:13.784Z,4184.00
2019-05-14T00:51:13.923Z,3788.00
2019-05-14T00:52:13.764Z,4508.00
2019-05-14T00:53:13.756Z,5076.00
2019-05-14T00:54:13.742Z,4892.00
2019-05-14T00:55:13.729Z,5268.00
2019-05-14T00:56:13.820Z,5764.00
2019-05-14T00:57:13.712Z,6020.00
2019-05-14T00:58:13.705Z,6428.00
2019-05-14T00:59:13.686Z,6768.00
2019-05-14T01:00:13.678Z,7068.00
2019-05-14T01:01:13.718Z,7396.00
2019-05-14T01:02:13.659Z,7648.00
2019-05-14T01:03:13.648Z,7860.00
2019-05-14T01:04:13.634Z,8136.00
2019-05-14T01:05:13.627Z,8480.00
2019-05-14T01:06:13.616Z,8908.00
2019-05-14T01:07:13.758Z,9196.00
2019-05-14T01:08:13.597Z,9548.00
2019-05-14T01:09:13.587Z,9656.00
2019-05-14T01:10:13.571Z,9896.00
2019-05-14T01:11:13.563Z,9892.00
2019-05-14T01:12:13.553Z,10240.00
2019-05-14T01:13:13.597Z,10580.00
2019-05-14T01:14:13.531Z,10944.00
2019-05-14T01:15:14.320Z,11384.00
2019-05-14T01:16:13.512Z,11704.00
2019-05-14T01:17:13.510Z,12024.00
2019-05-14T01:18:13.541Z,12556.00
2019-05-14T01:19:13.481Z,12692.00
2019-05-14T01:20:13.476Z,15440.00
2019-05-14T01:21:13.460Z,21344.00
2019-05-14T01:22:13.448Z,27776.00
2019-05-14T01:23:13.593Z,26816.00
2019-05-14T01:24:13.432Z,23616.00
2019-05-14T01:25:13.422Z,24768.00
2019-05-14T01:26:13.412Z,31136.00
2019-05-14T01:27:13.394Z,36576.00
2019-05-14T01:28:13.383Z,40288.00
2019-05-14T01:29:13.425Z,42432.00
2019-05-14T01:30:13.363Z,39520.00
2019-05-14T01:31:14.805Z,37856.00
2019-05-14T01:32:13.346Z,41408.00
2019-05-14T01:33:13.333Z,45696.00
2019-05-14T01:34:13.371Z,47648.00
2019-05-14T01:35:13.312Z,47232.00
2019-05-14T01:36:13.307Z,44736.00
2019-05-14T01:37:13.292Z,42752.00
2019-05-14T01:38:13.281Z,41632.00
2019-05-14T01:39:13.422Z,38912.00
2019-05-14T01:40:13.264Z,38752.00
2019-05-14T01:41:13.253Z,38656.00
2019-05-14T01:42:13.239Z,41728.00
2019-05-14T01:43:13.231Z,43232.00
2019-05-14T01:44:13.222Z,43968.00
2019-05-14T01:45:23.914Z,44576.00
2019-05-14T01:46:14.295Z,46016.00
2019-05-14T01:47:13.188Z,46944.00
2019-05-14T01:48:13.177Z,46144.00
2019-05-14T01:49:13.168Z,49664.00
2019-05-14T01:50:13.207Z,54400.00
2019-05-14T01:51:13.148Z,56448.00
2019-05-14T01:52:13.138Z,57344.00
2019-05-14T01:53:13.128Z,58560.00
2019-05-14T01:54:13.117Z,61504.00
2019-05-14T01:55:13.355Z,62464.00
2019-05-14T01:56:13.096Z,60992.00
2019-05-14T01:57:13.085Z,57216.00
2019-05-14T01:58:13.074Z,57376.00
2019-05-14T01:59:13.068Z,60992.00
2019-05-14T02:00:13.060Z,63136.00
2019-05-14T02:01:13.101Z,62144.00
2019-05-14T02:02:13.036Z,58464.00
2019-05-14T02:03:13.026Z,55232.00
2019-05-14T02:04:13.018Z,59520.00
2019-05-14T02:05:13.015Z,65600.00
2019-05-14T02:06:13.000Z,63168.00
2019-05-14T02:07:15.889Z,57216.00
2019-05-14T02:08:12.976Z,58016.00
2019-05-14T02:09:12.969Z,63104.00
2019-05-14T02:10:12.955Z,65472.00
2019-05-14T02:11:12.946Z,59520.00
2019-05-14T02:12:12.936Z,52000.00
2019-05-14T02:13:12.982Z,48288.00
2019-05-14T02:14:12.915Z,49024.00
2019-05-14T02:15:12.902Z,51648.00
2019-05-14T02:16:13.204Z,53248.00
2019-05-14T02:17:12.883Z,51264.00
2019-05-14T02:18:12.879Z,48448.00
2019-05-14T02:19:13.014Z,48960.00
2019-05-14T02:20:12.852Z,49088.00
2019-05-14T02:21:12.841Z,50336.00
2019-05-14T02:22:12.833Z,51040.00
2019-05-14T02:23:12.820Z,50528.00
2019-05-14T02:24:12.815Z,48416.00
2019-05-14T02:25:12.852Z,49856.00
2019-05-14T02:26:12.793Z,49024.00
2019-05-14T02:27:12.780Z,47456.00
2019-05-14T02:28:12.771Z,50624.00
2019-05-14T02:29:12.761Z,48384.00
2019-05-14T02:30:12.751Z,17320.00
2019-05-14T02:31:12.799Z,27648.00
2019-05-14T02:32:12.737Z,34112.00
2019-05-14T02:33:12.740Z,46752.00
2019-05-14T02:34:12.717Z,45728.00
2019-05-14T02:35:12.713Z,41504.00
2019-05-14T02:36:12.694Z,46368.00
2019-05-14T02:37:12.833Z,44256.00
2019-05-14T02:38:12.680Z,43424.00
2019-05-14T02:39:12.661Z,40608.00
2019-05-14T02:40:12.650Z,26176.00
2019-05-14T02:41:12.645Z,18356.00
2019-05-14T02:42:12.632Z,18876.00
2019-05-14T02:43:12.673Z,25120.00
2019-05-14T02:44:12.610Z,28640.00
2019-05-14T02:45:12.602Z,36416.00
2019-05-14T02:46:17.229Z,40576.00
2019-05-14T02:47:39.707Z,20608.00
2019-05-14T02:48:40.304Z,19684.00
2019-05-14T02:49:39.916Z,16752.00
2019-05-14T02:50:39.615Z,23744.00
2019-05-14T02:51:39.099Z,16304.00
2019-05-14T02:52:40.275Z,14784.00
2019-05-14T02:53:39.130Z,13584.00
2019-05-14T02:54:40.489Z,15508.00
2019-05-14T02:55:39.072Z,17020.00
2019-05-14T02:56:40.116Z,24064.00
2019-05-14T02:57:39.395Z,13796.00
2019-05-14T02:58:40.171Z,12508.00
2019-05-14T02:59:39.446Z,12148.00
2019-05-14T03:00:40.470Z,11676.00
2019-05-14T03:01:40.588Z,11292.00
2019-05-14T03:02:40.029Z,11028.00
2019-05-14T03:03:40.137Z,11120.00
2019-05-14T03:04:39.537Z,11632.00
2019-05-14T03:05:39.929Z,12932.00
2019-05-14T03:06:39.531Z,27008.00
2019-05-14T03:07:39.284Z,19748.00
2019-05-14T03:08:39.030Z,20512.00
2019-05-14T03:09:40.323Z,38720.00
2019-05-14T03:10:39.996Z,44576.00
2019-05-14T03:11:40.379Z,43488.00
2019-05-14T03:12:39.648Z,37280.00
2019-05-14T03:13:40.077Z,30656.00
2019-05-14T03:14:39.609Z,34400.00
2019-05-14T03:15:39.128Z,42912.00
2019-05-14T03:16:40.275Z,42688.00
2019-05-14T03:17:40.270Z,42144.00
2019-05-14T03:18:39.608Z,44704.00
2019-05-14T03:19:40.283Z,45792.00
2019-05-14T03:20:39.042Z,44096.00
2019-05-14T03:21:39.598Z,43968.00
2019-05-14T03:22:46.862Z,44512.00
2019-05-14T03:23:39.229Z,44736.00
2019-05-14T03:24:39.649Z,44512.00
2019-05-14T03:25:39.788Z,41984.00
2019-05-14T03:26:39.846Z,41504.00
2019-05-14T03:27:40.148Z,42304.00
2019-05-14T03:28:39.828Z,41248.00
2019-05-14T03:29:39.869Z,40736.00
2019-05-14T03:30:41.753Z,40288.00
2019-05-14T03:31:41.879Z,39264.00
2019-05-14T03:33:03.150Z,41024.00
2019-05-14T03:34:03.291Z,41408.00
2019-05-14T03:35:04.063Z,42048.00
2019-05-14T03:36:09.537Z,41856.00
2019-05-14T03:37:30.630Z,41056.00
2019-05-14T03:38:29.481Z,39968.00
2019-05-14T03:39:29.403Z,39264.00
2019-05-14T03:40:29.212Z,40096.00
2019-05-14T03:41:26.486Z,40032.00
2019-05-14T03:42:29.027Z,37856.00
2019-05-14T03:43:29.374Z,38016.00
2019-05-14T03:44:29.138Z,38336.00
2019-05-14T03:45:29.677Z,40832.00
2019-05-14T03:46:44.289Z,41760.00
2019-05-14T03:47:51.235Z,40672.00
2019-05-14T03:48:51.226Z,40512.00
2019-05-14T03:49:51.235Z,42400.00
2019-05-14T03:50:51.266Z,40992.00
2019-05-14T03:51:51.215Z,41728.00
2019-05-14T03:52:51.197Z,42752.00
2019-05-14T03:54:01.254Z,40864.00
2019-05-14T03:55:15.980Z,39328.00
2019-05-14T03:56:19.028Z,38400.00
2019-05-14T03:57:15.964Z,35520.00
2019-05-14T03:58:20.635Z,34080.00
2019-05-14T03:59:16.042Z,34176.00
2019-05-14T04:00:18.764Z,34208.00
2019-05-14T04:01:15.920Z,35584.00
2019-05-14T04:02:19.551Z,37440.00
2019-05-14T04:03:15.901Z,36608.00
2019-05-14T04:04:19.185Z,35520.00
2019-05-14T04:05:18.994Z,35456.00
2019-05-14T04:06:40.683Z,36256.00
2019-05-14T04:07:40.728Z,35392.00
2019-05-14T04:08:40.666Z,32896.00
2019-05-14T04:09:40.671Z,32384.00
2019-05-14T04:10:49.057Z,32928.00
2019-05-14T04:12:05.448Z,32288.00
2019-05-14T04:13:08.258Z,30368.00
2019-05-14T04:14:05.435Z,30752.00
2019-05-14T04:15:05.417Z,32896.00
2019-05-14T04:16:05.404Z,32640.00
2019-05-14T04:17:11.226Z,31552.00
2019-05-14T04:18:09.024Z,29600.00
2019-05-14T04:19:05.374Z,30304.00
2019-05-14T04:20:05.368Z,30880.00
2019-05-14T04:21:05.356Z,28672.00
2019-05-14T04:22:05.386Z,25312.00
2019-05-14T04:23:05.342Z,22816.00
2019-05-14T04:24:05.485Z,18736.00
2019-05-14T04:25:05.319Z,13696.00
2019-05-14T04:26:05.307Z,11356.00
2019-05-14T04:27:11.549Z,10996.00
2019-05-14T04:28:30.107Z,10776.00
2019-05-14T04:29:30.755Z,10636.00
2019-05-14T04:30:30.090Z,10528.00
2019-05-14T04:31:30.090Z,10400.00
2019-05-14T04:32:30.163Z,10276.00
2019-05-14T04:33:30.672Z,10144.00
2019-05-14T04:34:30.324Z,10024.00
2019-05-14T04:35:30.030Z,9900.00
2019-05-14T04:36:30.402Z,9784.00
2019-05-14T04:37:30.012Z,9720.00
2019-05-14T04:38:30.346Z,9628.00
2019-05-14T04:39:30.971Z,9520.00
2019-05-14T04:40:29.985Z,9428.00
2019-05-14T04:41:30.164Z,9368.00
2019-05-14T04:42:29.962Z,9316.00
2019-05-14T04:43:29.956Z,9256.00
2019-05-14T04:44:30.127Z,9184.00
2019-05-14T04:45:30.240Z,9128.00
2019-05-14T04:46:30.473Z,9056.00
2019-05-14T04:47:35.937Z,8980.00
2019-05-14T04:48:54.720Z,8880.00
2019-05-14T04:49:54.709Z,8808.00
2019-05-14T04:50:54.748Z,8748.00
2019-05-14T04:51:54.688Z,8684.00
2019-05-14T04:52:54.678Z,8672.00
2019-05-14T04:53:54.673Z,8640.00
2019-05-14T04:54:54.665Z,8592.00
2019-05-14T04:55:54.651Z,8604.00
2019-05-14T04:56:54.795Z,8564.00
2019-05-14T04:57:54.630Z,8520.00
2019-05-14T04:58:54.623Z,8496.00
2019-05-14T04:59:54.613Z,8436.00
2019-05-14T05:00:54.601Z,8380.00
2019-05-14T05:01:54.592Z,8324.00
2019-05-14T05:02:54.634Z,8240.00
2019-05-14T05:03:54.580Z,8184.00
2019-05-14T05:04:54.566Z,8136.00
2019-05-14T05:05:54.555Z,8048.00
2019-05-14T05:06:54.548Z,7956.00
2019-05-14T05:07:54.536Z,7892.00
2019-05-14T05:08:54.574Z,7828.00
2019-05-14T05:09:54.520Z,7776.00
2019-05-14T05:10:54.507Z,7716.00
2019-05-14T05:11:54.500Z,7652.00
2019-05-14T05:12:54.487Z,7588.00
2019-05-14T05:13:54.477Z,7512.00
2019-05-14T05:14:54.866Z,7444.00
2019-05-14T05:15:54.464Z,7360.00
2019-05-14T05:16:54.453Z,7268.00
2019-05-14T05:17:54.438Z,7176.00
2019-05-14T05:18:54.426Z,7092.00
2019-05-14T05:19:54.418Z,7024.00
2019-05-14T05:20:54.465Z,6944.00
2019-05-14T05:21:54.397Z,6876.00
2019-05-14T05:22:54.405Z,6816.00
2019-05-14T05:23:54.374Z,6756.00
2019-05-14T05:24:54.367Z,6700.00
2019-05-14T05:25:54.357Z,6656.00
2019-05-14T05:26:54.396Z,6612.00
2019-05-14T05:28:19.242Z,6548.00
2019-05-14T05:29:19.136Z,6508.00
2019-05-14T05:30:19.159Z,6448.00
2019-05-14T05:31:19.118Z,6396.00
2019-05-14T05:32:19.684Z,6352.00
2019-05-14T05:33:19.095Z,6308.00
2019-05-14T05:34:19.395Z,6252.00
2019-05-14T05:35:19.075Z,6188.00
2019-05-14T05:36:19.065Z,6132.00
2019-05-14T05:37:19.172Z,6080.00
2019-05-14T05:38:19.092Z,6004.00
2019-05-14T05:39:19.104Z,5832.00
2019-05-14T05:40:19.810Z,5532.00
2019-05-14T05:41:19.409Z,5276.00
2019-05-14T05:42:19.113Z,5196.00
2019-05-14T05:43:19.219Z,5176.00
2019-05-14T05:44:19.083Z,5164.00
2019-05-14T05:45:18.975Z,5140.00
2019-05-14T05:46:19.410Z,5116.00
2019-05-14T05:47:18.955Z,5088.00
2019-05-14T05:48:18.979Z,5060.00
2019-05-14T05:49:18.982Z,5028.00
2019-05-14T05:50:19.450Z,5016.00
2019-05-14T05:51:19.080Z,4996.00
2019-05-14T05:52:19.271Z,4988.00
2019-05-14T05:53:19.393Z,4972.00
2019-05-14T05:54:19.062Z,4956.00
2019-05-14T05:55:19.221Z,4932.00
2019-05-14T05:56:18.978Z,4912.00
2019-05-14T05:57:18.939Z,4888.00
2019-05-14T05:58:19.650Z,4860.00
2019-05-14T05:59:19.162Z,4844.00
2019-05-14T06:00:18.989Z,4836.00
2019-05-14T06:01:19.590Z,4832.00
2019-05-14T06:02:18.890Z,4824.00
2019-05-14T06:03:21.023Z,4808.00
2019-05-14T06:04:18.833Z,4788.00
2019-05-14T06:05:18.781Z,4772.00
2019-05-14T06:06:19.388Z,4752.00
2019-05-14T06:07:18.763Z,4732.00
2019-05-14T06:08:18.991Z,4728.00
2019-05-14T06:09:18.734Z,4716.00
2019-05-14T06:10:18.874Z,4692.00
2019-05-14T06:11:19.399Z,4684.00
2019-05-14T06:12:19.140Z,4672.00
2019-05-14T06:13:18.695Z,4656.00
2019-05-14T06:14:18.766Z,4648.00
2019-05-14T06:15:19.258Z,4636.00
2019-05-14T06:16:18.907Z,4620.00
2019-05-14T06:17:19.270Z,4616.00
2019-05-14T06:18:21.956Z,4612.00
2019-05-14T06:19:18.679Z,4600.00
2019-05-14T06:20:19.049Z,4600.00
2019-05-14T06:21:19.304Z,4604.00
2019-05-14T06:22:19.066Z,4600.00
2019-05-14T06:23:18.982Z,4584.00
2019-05-14T06:24:19.298Z,4568.00
2019-05-14T06:25:20.837Z,4552.00
2019-05-14T06:26:19.306Z,4536.00
2019-05-14T06:27:18.546Z,4536.00
2019-05-14T06:28:20.939Z,4532.00
2019-05-14T06:29:18.744Z,4524.00
2019-05-14T06:30:18.516Z,4512.00
2019-05-14T06:31:19.279Z,4496.00
2019-05-14T06:32:18.884Z,4488.00
2019-05-14T06:33:19.658Z,4468.00
2019-05-14T06:34:18.892Z,4448.00
2019-05-14T06:35:19.343Z,4428.00
2019-05-14T06:36:19.525Z,4416.00
2019-05-14T06:37:19.082Z,4404.00
2019-05-14T06:38:18.670Z,4396.00
2019-05-14T06:39:18.474Z,4392.00
2019-05-14T06:40:19.319Z,4392.00
2019-05-14T06:41:19.127Z,4400.00
2019-05-14T06:42:19.249Z,4424.00
2019-05-14T06:43:18.975Z,4448.00
2019-05-14T06:44:18.855Z,4448.00
2019-05-14T06:45:18.811Z,4428.00
2019-05-14T06:46:19.303Z,4400.00
2019-05-14T06:47:18.566Z,4380.00
2019-05-14T06:48:30.121Z,4364.00
2019-05-14T06:49:43.126Z,4432.00
2019-05-14T06:50:43.114Z,4520.00
2019-05-14T06:51:43.153Z,4580.00
2019-05-14T06:52:43.094Z,4616.00
2019-05-14T06:53:43.083Z,4660.00
2019-05-14T06:54:43.073Z,4668.00
2019-05-14T06:55:43.124Z,4724.00
2019-05-14T06:56:44.961Z,4800.00
2019-05-14T06:57:43.100Z,4784.00
2019-05-14T06:58:43.092Z,4728.00
2019-05-14T06:59:43.079Z,4696.00
2019-05-14T07:00:43.068Z,4664.00
2019-05-14T07:01:43.064Z,4624.00
2019-05-14T07:02:44.198Z,4600.00
2019-05-14T07:03:43.038Z,4608.00
2019-05-14T07:04:43.029Z,4668.00
2019-05-14T07:05:43.023Z,4708.00
2019-05-14T07:06:43.016Z,4784.00
2019-05-14T07:07:43.013Z,4856.00
2019-05-14T07:08:43.886Z,4976.00
2019-05-14T07:09:42.979Z,5116.00
2019-05-14T07:10:42.969Z,5220.00
2019-05-14T07:11:42.958Z,5204.00
2019-05-14T07:12:42.946Z,5276.00
2019-05-14T07:13:42.937Z,5316.00
2019-05-14T07:14:43.176Z,5272.00
2019-05-14T07:15:42.913Z,5172.00
2019-05-14T07:16:42.915Z,5052.00
2019-05-14T07:17:42.895Z,4988.00
2019-05-14T07:18:49.298Z,5008.00
2019-05-14T07:20:08.869Z,4944.00
2019-05-14T07:21:08.356Z,4884.00
2019-05-14T07:22:09.028Z,4884.00
2019-05-14T07:23:08.304Z,4864.00
2019-05-14T07:24:08.764Z,4836.00
2019-05-14T07:25:09.845Z,4852.00
2019-05-14T07:26:08.481Z,4828.00
2019-05-14T07:27:09.441Z,4848.00
2019-05-14T07:28:08.819Z,4956.00
2019-05-14T07:29:11.507Z,5056.00
2019-05-14T07:30:08.958Z,5104.00
2019-05-14T07:31:32.834Z,5084.00
2019-05-14T07:32:32.625Z,5080.00
2019-05-14T07:33:32.611Z,5052.00
2019-05-14T07:34:32.604Z,5020.00
2019-05-14T07:35:32.592Z,5032.00
2019-05-14T07:36:32.684Z,5048.00
2019-05-14T07:37:32.572Z,5048.00
2019-05-14T07:38:32.567Z,5080.00
2019-05-14T07:39:32.584Z,5136.00
2019-05-14T07:40:32.745Z,5216.00
2019-05-14T07:41:32.530Z,5244.00
2019-05-14T07:42:58.312Z,5444.00
2019-05-14T07:43:58.634Z,5628.00
2019-05-14T07:44:58.922Z,5796.00
2019-05-14T07:45:58.228Z,5848.00
2019-05-14T07:46:58.945Z,5664.00
2019-05-14T07:47:58.256Z,5508.00
2019-05-14T07:49:07.183Z,5404.00
2019-05-14T07:49:58.545Z,5320.00
2019-05-14T07:51:00.078Z,5472.00
2019-05-14T07:51:58.741Z,5724.00
2019-05-14T07:52:58.693Z,5808.00
2019-05-14T07:53:58.063Z,5820.00
2019-05-14T07:54:58.650Z,5796.00
2019-05-14T07:55:59.161Z,5792.00
2019-05-14T07:56:59.030Z,5824.00
2019-05-14T07:57:58.711Z,5832.00
2019-05-14T07:58:58.481Z,5944.00
2019-05-14T07:59:58.913Z,6064.00
2019-05-14T08:00:58.579Z,6160.00
2019-05-14T08:01:58.629Z,6272.00
2019-05-14T08:02:58.149Z,6324.00
2019-05-14T08:04:00.192Z,6408.00
2019-05-14T08:04:58.032Z,6456.00
2019-05-14T08:05:58.895Z,6476.00
2019-05-14T08:06:58.194Z,6504.00
2019-05-14T08:07:58.587Z,6432.00
2019-05-14T08:08:59.246Z,6240.00
2019-05-14T08:09:58.346Z,5960.00
2019-05-14T08:10:59.194Z,5784.00
2019-05-14T08:11:58.704Z,5692.00
2019-05-14T08:12:58.866Z,5648.00
2019-05-14T08:13:58.501Z,5588.00
2019-05-14T08:15:14.274Z,5424.00
2019-05-14T08:15:58.534Z,5316.00
2019-05-14T08:16:59.545Z,5264.00
2019-05-14T08:17:58.566Z,5280.00
2019-05-14T08:18:57.157Z,5368.00
2019-05-14T08:19:58.300Z,5428.00
2019-05-14T08:20:59.153Z,5496.00
2019-05-14T08:21:58.712Z,5556.00
2019-05-14T08:22:58.267Z,5636.00
2019-05-14T08:23:59.260Z,5676.00
2019-05-14T08:24:58.087Z,5664.00
2019-05-14T08:25:58.669Z,5644.00
2019-05-14T08:26:57.957Z,5616.00
2019-05-14T08:27:58.689Z,5608.00
2019-05-14T08:28:58.063Z,5640.00
2019-05-14T08:29:58.927Z,5644.00
2019-05-14T08:30:58.463Z,5644.00
2019-05-14T08:31:58.267Z,5580.00
2019-05-14T08:32:58.342Z,5388.00
2019-05-14T08:33:59.156Z,5376.00
2019-05-14T08:34:58.450Z,5396.00
2019-05-14T08:35:58.190Z,5372.00
2019-05-14T08:36:58.832Z,5396.00
2019-05-14T08:38:07.331Z,5436.00
2019-05-14T08:39:21.747Z,5428.00
2019-05-14T08:40:21.989Z,5520.00
2019-05-14T08:41:21.739Z,5592.00
2019-05-14T08:42:21.718Z,5636.00
2019-05-14T08:43:21.718Z,5720.00
2019-05-14T08:44:21.696Z,5628.00
2019-05-14T08:45:21.692Z,5888.00
2019-05-14T08:46:21.728Z,5928.00
2019-05-14T08:47:21.666Z,5888.00
2019-05-14T08:48:21.655Z,5896.00
2019-05-14T08:49:37.166Z,5928.00
2019-05-14T08:50:48.131Z,5960.00
2019-05-14T08:51:49.188Z,6080.00
2019-05-14T08:52:48.375Z,6136.00
2019-05-14T08:53:49.769Z,6244.00
2019-05-14T08:54:46.415Z,6328.00
2019-05-14T08:55:48.642Z,6308.00
2019-05-14T08:56:48.869Z,6192.00
2019-05-14T08:57:48.713Z,6052.00
2019-05-14T08:58:49.176Z,6016.00
2019-05-14T08:59:48.644Z,6064.00
2019-05-14T09:00:48.250Z,6104.00
2019-05-14T09:01:58.723Z,6160.00
2019-05-14T09:02:48.565Z,6164.00
2019-05-14T09:03:48.870Z,6088.00
2019-05-14T09:04:52.611Z,6044.00
2019-05-14T09:05:49.148Z,6036.00
2019-05-14T09:06:48.783Z,6076.00
2019-05-14T09:07:48.866Z,6148.00
2019-05-14T09:08:46.310Z,6164.00
2019-05-14T09:09:48.608Z,6220.00
2019-05-14T09:10:46.245Z,6336.00
2019-05-14T09:11:49.811Z,6492.00
2019-05-14T09:12:46.216Z,6576.00
2019-05-14T09:13:48.847Z,6624.00
2019-05-14T09:14:48.332Z,6648.00
2019-05-14T09:15:48.715Z,6616.00
2019-05-14T09:16:50.555Z,6568.00
2019-05-14T09:17:48.345Z,6536.00
2019-05-14T09:18:48.863Z,6516.00
2019-05-14T09:19:58.800Z,6440.00
2019-05-14T09:21:10.949Z,6532.00
2019-05-14T09:22:10.938Z,6632.00
2019-05-14T09:23:10.927Z,6704.00
2019-05-14T09:24:10.962Z,6732.00
2019-05-14T09:25:10.905Z,6752.00
2019-05-14T09:26:10.897Z,6660.00
2019-05-14T09:27:10.892Z,6540.00
2019-05-14T09:28:10.873Z,6484.00
2019-05-14T09:29:24.704Z,6488.00
2019-05-14T09:30:37.968Z,6288.00
2019-05-14T09:31:35.706Z,6280.00
2019-05-14T09:32:38.542Z,6332.00
2019-05-14T09:33:35.735Z,6428.00
2019-05-14T09:35:00.480Z,6508.00
2019-05-14T09:36:14.791Z,6440.00
2019-05-14T09:37:01.560Z,6396.00
2019-05-14T09:38:00.459Z,6404.00
2019-05-14T09:39:00.442Z,6516.00
2019-05-14T09:40:00.431Z,6572.00
2019-05-14T09:41:10.649Z,6584.00
2019-05-14T09:42:01.502Z,6608.00
2019-05-14T09:43:00.402Z,6640.00
2019-05-14T09:44:00.390Z,6704.00
2019-05-14T09:45:00.379Z,6684.00
2019-05-14T09:46:00.416Z,6752.00
2019-05-14T09:47:00.357Z,6772.00
2019-05-14T09:48:00.350Z,6708.00
2019-05-14T09:49:00.333Z,6612.00
2019-05-14T09:50:15.260Z,6468.00
2019-05-14T09:51:25.174Z,6348.00
2019-05-14T09:52:25.169Z,6284.00
2019-05-14T09:53:25.156Z,6144.00
2019-05-14T09:54:25.146Z,6068.00
2019-05-14T09:55:25.133Z,6032.00
2019-05-14T09:56:25.273Z,5932.00
2019-05-14T09:57:25.119Z,5808.00
2019-05-14T09:58:25.106Z,5700.00
2019-05-14T09:59:25.101Z,5628.00
2019-05-14T10:00:25.083Z,5564.00
2019-05-14T10:01:25.124Z,5448.00
2019-05-14T10:02:25.060Z,5320.00
2019-05-14T10:03:25.052Z,5228.00
2019-05-14T10:04:25.042Z,5160.00
2019-05-14T10:05:25.031Z,5096.00
2019-05-14T10:06:25.019Z,5060.00
2019-05-14T10:07:25.113Z,4996.00
2019-05-14T10:08:24.999Z,4928.00
2019-05-14T10:09:24.989Z,4864.00
2019-05-14T10:10:24.979Z,4780.00
2019-05-14T10:11:24.964Z,4704.00
2019-05-14T10:12:25.108Z,4644.00
2019-05-14T10:13:24.949Z,4592.00
2019-05-14T10:14:24.937Z,4552.00
2019-05-14T10:15:24.926Z,4528.00
2019-05-14T10:16:24.919Z,4512.00
2019-05-14T10:17:24.955Z,4472.00
2019-05-14T10:18:24.896Z,4448.00
2019-05-14T10:19:24.883Z,4416.00
2019-05-14T10:20:40.396Z,4292.00
2019-05-14T10:21:49.677Z,4260.00
2019-05-14T10:22:49.713Z,4256.00
2019-05-14T10:23:49.652Z,4220.00
2019-05-14T10:24:49.648Z,4160.00
2019-05-14T10:25:49.633Z,4120.00
2019-05-14T10:26:49.650Z,4108.00
2019-05-14T10:27:49.621Z,4096.00
2019-05-14T10:28:49.850Z,4084.00
2019-05-14T10:29:49.593Z,4080.00
2019-05-14T10:30:49.579Z,4096.00
2019-05-14T10:31:49.572Z,4096.00
2019-05-14T10:32:49.559Z,4096.00
2019-05-14T10:33:49.598Z,4084.00
2019-05-14T10:34:49.537Z,4076.00
2019-05-14T10:35:49.528Z,4072.00
2019-05-14T10:36:49.536Z,4048.00
2019-05-14T10:37:49.514Z,4016.00
2019-05-14T10:38:49.544Z,3972.00
2019-05-14T10:39:49.486Z,3912.00
2019-05-14T10:40:49.473Z,3840.00
2019-05-14T10:41:49.466Z,3808.00
2019-05-14T10:42:49.609Z,3812.00
2019-05-14T10:43:49.908Z,3796.00
2019-05-14T10:44:49.435Z,3780.00
2019-05-14T10:45:49.593Z,3760.00
2019-05-14T10:46:49.414Z,3732.00
2019-05-14T10:47:49.574Z,3696.00
2019-05-14T10:48:49.390Z,3664.00
2019-05-14T10:49:49.528Z,3636.00
2019-05-14T10:50:59.070Z,3604.00
2019-05-14T10:52:14.173Z,3568.00
2019-05-14T10:53:14.160Z,3540.00
2019-05-14T10:54:22.256Z,3512.00
2019-05-14T10:55:39.000Z,3512.00
2019-05-14T10:56:38.991Z,3524.00
2019-05-14T10:57:38.979Z,3540.00
2019-05-14T10:58:38.968Z,3540.00
2019-05-14T10:59:38.958Z,3548.00
2019-05-14T11:00:41.919Z,3568.00
2019-05-14T11:01:39.182Z,3600.00
2019-05-14T11:02:38.996Z,3644.00
2019-05-14T11:03:39.014Z,3680.00
2019-05-14T11:04:39.164Z,3692.00
2019-05-14T11:05:41.530Z,3684.00
2019-05-14T11:06:38.954Z,3664.00
2019-05-14T11:07:41.678Z,3628.00
2019-05-14T11:08:38.969Z,3588.00
2019-05-14T11:09:38.855Z,3540.00
2019-05-14T11:10:42.184Z,3508.00
2019-05-14T11:11:38.837Z,3484.00
2019-05-14T11:12:39.723Z,3468.00
2019-05-14T11:13:39.520Z,3480.00
2019-05-14T11:14:39.013Z,3488.00
2019-05-14T11:15:39.493Z,3476.00
2019-05-14T11:16:41.939Z,3440.00
2019-05-14T11:17:40.771Z,3404.00
2019-05-14T11:18:39.910Z,3368.00
2019-05-14T11:19:39.105Z,3352.00
2019-05-14T11:20:42.195Z,3348.00
2019-05-14T11:21:39.309Z,3336.00
2019-05-14T11:22:38.728Z,3304.00
2019-05-14T11:23:38.853Z,3240.00
2019-05-14T11:24:38.769Z,3160.00
2019-05-14T11:25:38.694Z,3088.00
2019-05-14T11:26:39.338Z,3044.00
2019-05-14T11:27:39.099Z,3032.00
2019-05-14T11:28:39.547Z,3024.00
2019-05-14T11:29:38.963Z,3020.00
2019-05-14T11:30:39.197Z,3020.00
2019-05-14T11:31:39.312Z,3028.00
2019-05-14T11:32:38.801Z,3020.00
2019-05-14T11:33:38.984Z,3016.00
2019-05-14T11:34:39.229Z,3008.00
2019-05-14T11:35:39.440Z,3000.00
2019-05-14T11:36:39.034Z,2984.00
2019-05-14T11:37:41.394Z,2956.00
2019-05-14T11:38:38.562Z,2944.00
2019-05-14T11:39:38.554Z,2936.00
2019-05-14T11:40:38.769Z,2928.00
2019-05-14T11:41:39.008Z,2900.00
2019-05-14T11:42:38.947Z,2876.00
2019-05-14T11:43:39.710Z,2852.00
2019-05-14T11:44:38.502Z,2840.00
2019-05-14T11:45:39.481Z,2836.00
2019-05-14T11:46:47.660Z,2836.00
2019-05-14T11:47:39.566Z,2836.00
2019-05-14T11:48:39.462Z,2844.00
2019-05-14T11:49:38.467Z,2844.00
2019-05-14T11:50:38.442Z,2840.00
2019-05-14T11:51:59.602Z,2836.00
2019-05-14T11:52:39.518Z,2832.00
2019-05-14T11:53:38.703Z,2836.00
2019-05-14T11:54:41.096Z,2844.00
2019-05-14T11:55:38.920Z,2836.00
2019-05-14T11:56:41.885Z,2824.00
2019-05-14T11:57:38.367Z,2808.00
2019-05-14T11:58:38.362Z,2792.00
2019-05-14T11:59:39.084Z,2780.00
2019-05-14T12:00:38.867Z,2772.00
2019-05-14T12:01:39.161Z,2756.00
2019-05-14T12:02:38.654Z,2744.00
2019-05-14T12:03:39.412Z,2732.00
2019-05-14T12:04:39.160Z,2732.00
2019-05-14T12:05:38.824Z,2732.00
2019-05-14T12:06:38.981Z,2732.00
2019-05-14T12:07:38.839Z,2732.00
2019-05-14T12:08:41.936Z,2720.00
2019-05-14T12:09:39.078Z,2704.00
2019-05-14T12:10:38.657Z,2680.00